Alamogordo White Sands Regional Airport
KALM : now visible

Airfield :











YOU CAN JOIN US ON...

 
LOGIN :

Register | Disclaimer

   EN    FR    IT 

 









Legend :    VFR   Marginal VFR   IFR   Intensive IFR   Very Intensive IFR
Visi :
Ceiling :
>= 8 km
>= 3000ft
5 to 8 km
1000 to 3000 ft
1500m to 5 km
500 to 1000 ft
800 to 1500m
200 to 500 ft
< 800m
< 200 ft
Symbols :   Thunderstorms  Fog  Heavy snow  Heavy precipitations  Wind > 20 kt






- Airport Elevation : 4200 ft
- IATA code : ALM


KALM - Alamogordo White Sands Regional

CURRENT METAR :
  • 031415Z AUTO 00000KT 10SM CLR 21/15 A3023 RMK AO2

EXPIRED METARs :
  • 031355Z AUTO 00000KT 10SM CLR 20/16 A3023 RMK AO2
  • 031335Z AUTO 07003KT 10SM CLR 19/17 A3023 RMK AO2
  • 031315Z AUTO 00000KT 10SM CLR 18/17 A3023 RMK AO2
  • 031255Z AUTO 27004KT 10SM CLR 17/17 A3022 RMK AO2
  • 031235Z AUTO 14004KT 10SM CLR 15/15 A3022 RMK AO2
  • 031215Z AUTO 18005KT 10SM CLR 17/17 A3021 RMK AO2
  • 031155Z AUTO 11003KT 10SM CLR 17/17 A3021 RMK AO2
  • 031135Z AUTO 20007KT 10SM CLR 17/17 A3019 RMK AO2
  • 031115Z AUTO 19007KT 10SM CLR 17/17 A3019 RMK AO2

TAF N/A
KZAB FIR / North America



MET'MAP, your aeronautical weather chart ! - Copyright ORBIFLY December 2007 - Disclaimer

ORBIFLY MET'MAP TEAM :

Programming & Development : Alexandra Zaïnal
Concept & original design : Baudouin d'Aumeries
Assistance for programming : Marc-Olivier Méhu
Technical & hardware support : Manuel Goepfert

Contact : metmap@orbifly.com




SOURCES & CREDITS :

   NOAA       Earth
Advisory